Time;durP1;ratioP1;P1;durP2;ratioP2;P2;SDS_P1;SDS_P2;PMS_P1;PMS_P2;Temp;Humidity;BMP_temperature;BMP_pressure;BME280_temperature;BME280_humidity;BME280_pressure;Samples;Min_cycle;Max_cycle;Signal;HPM_P1;HPM_P2
2023/05/14 00:01:20;;;;;;;77.00;57.90;;;18.30;83.30;;;;;;4894016;28;89847;-72
2023/05/14 00:03:46;;;;;;;78.07;59.00;;;18.30;83.30;;;;;;4901444;28;92220;-74
2023/05/14 00:06:12;;;;;;;77.10;58.88;;;18.20;82.90;;;;;;4898309;28;90985;-71
2023/05/14 00:08:37;;;;;;;76.75;58.60;;;18.20;82.40;;;;;;4900058;28;93038;-75
2023/05/14 00:11:03;;;;;;;80.47;58.40;;;18.20;82.60;;;;;;4905694;28;97233;-73
2023/05/14 00:13:28;;;;;;;77.03;57.65;;;18.20;82.80;;;;;;4901560;28;91173;-72
2023/05/14 00:15:54;;;;;;;76.20;57.65;;;18.20;83.20;;;;;;4905943;28;91346;-74
2023/05/14 00:18:20;;;;;;;75.90;58.28;;;18.20;82.50;;;;;;4906024;28;89987;-74
2023/05/14 00:20:45;;;;;;;77.40;58.13;;;18.20;82.80;;;;;;4901490;28;91246;-73
2023/05/14 00:23:11;;;;;;;75.47;58.72;;;18.20;83.20;;;;;;4901413;28;91162;-71
2023/05/14 00:25:37;;;;;;;77.90;58.83;;;18.20;83.10;;;;;;4905096;28;89728;-74
2023/05/14 00:28:03;;;;;;;76.57;57.65;;;18.20;83.00;;;;;;4903041;28;91632;-71
2023/05/14 00:30:29;;;;;;;78.05;59.08;;;18.20;83.10;;;;;;4905479;28;90586;-70
2023/05/14 00:32:54;;;;;;;78.55;58.53;;;18.20;82.50;;;;;;4909605;28;92460;-74
2023/05/14 00:35:20;;;;;;;77.28;58.85;;;18.10;82.50;;;;;;4910866;28;91219;-73
2023/05/14 00:37:46;;;;;;;76.65;58.38;;;18.10;82.70;;;;;;4902825;28;90713;-73
2023/05/14 00:40:12;;;;;;;76.20;58.25;;;18.10;82.80;;;;;;4904258;28;90524;-72
2023/05/14 00:42:41;;;;;;;76.90;58.15;;;18.10;83.20;;;;;;4907436;28;90685;-75
2023/05/14 00:45:07;;;;;;;77.13;58.38;;;18.10;82.80;;;;;;4924419;28;91956;-72
2023/05/14 00:47:36;;;;;;;77.45;58.38;;;18.10;83.00;;;;;;4930665;28;90318;-72
2023/05/14 00:50:02;;;;;;;77.10;59.03;;;18.10;82.90;;;;;;4927802;28;89984;-73
2023/05/14 00:52:28;;;;;;;78.13;58.47;;;18.10;82.30;;;;;;4906559;28;94234;-73
2023/05/14 00:54:55;;;;;;;77.45;59.22;;;18.10;82.10;;;;;;4919793;28;90413;-74
2023/05/14 00:57:20;;;;;;;78.10;59.35;;;18.00;82.30;;;;;;4932063;28;90594;-73
2023/05/14 00:59:46;;;;;;;79.03;59.20;;;18.10;81.80;;;;;;4934157;28;90849;-73
2023/05/14 01:02:12;;;;;;;78.78;58.60;;;18.00;82.10;;;;;;4927207;28;94812;-73
2023/05/14 01:04:38;;;;;;;79.50;58.85;;;18.10;82.50;;;;;;4913919;28;89925;-73
2023/05/14 01:07:35;;;;;;;76.25;58.65;;;18.00;81.90;;;;;;4927668;28;91101;-73
2023/05/14 01:10:09;;;;;;;77.07;58.03;;;18.00;82.40;;;;;;4933400;28;89497;-74
2023/05/14 01:12:46;;;;;;;77.35;58.70;;;18.00;82.30;;;;;;4933122;28;90335;-70
2023/05/14 01:15:38;;;;;;;78.72;58.53;;;18.00;82.20;;;;;;4952306;28;89465;-72
2023/05/14 01:18:09;;;;;;;79.85;58.85;;;18.00;82.40;;;;;;4927196;28;91582;-72
2023/05/14 01:20:35;;;;;;;75.97;57.83;;;18.00;82.40;;;;;;4931114;28;91140;-75
2023/05/14 01:23:02;;;;;;;77.50;58.45;;;18.00;83.50;;;;;;4933340;28;90631;-71
2023/05/14 01:25:29;;;;;;;77.55;59.30;;;18.00;82.40;;;;;;4938081;28;92586;-74
2023/05/14 01:28:13;;;;;;;75.53;57.90;;;18.00;82.40;;;;;;4937547;28;91310;-73
2023/05/14 01:31:06;;;;;;;77.10;58.05;;;18.00;82.90;;;;;;4948405;28;91107;-74
2023/05/14 01:33:34;;;;;;;74.38;57.25;;;18.00;83.00;;;;;;4941827;28;89869;-74
2023/05/14 01:36:00;;;;;;;74.47;58.25;;;18.00;82.90;;;;;;4933223;28;89480;-76
2023/05/14 01:38:29;;;;;;;76.38;58.35;;;18.00;82.80;;;;;;4925648;28;91863;-73
2023/05/14 01:40:56;;;;;;;77.40;58.70;;;17.90;82.80;;;;;;4932902;28;89209;-74
2023/05/14 01:43:22;;;;;;;75.43;58.17;;;18.00;82.60;;;;;;4931165;28;90307;-71
2023/05/14 01:45:48;;;;;;;76.10;58.63;;;18.00;82.70;;;;;;4930569;28;90324;-74
2023/05/14 01:48:14;;;;;;;78.78;58.90;;;17.90;82.60;;;;;;4934859;28;90948;-72
2023/05/14 01:50:40;;;;;;;78.05;59.03;;;18.00;82.70;;;;;;4936934;28;90842;-74
2023/05/14 01:53:05;;;;;;;75.03;58.33;;;17.90;82.30;;;;;;4937805;28;90412;-72
2023/05/14 01:55:31;;;;;;;79.13;58.38;;;17.90;82.60;;;;;;4936571;28;94622;-74
2023/05/14 01:57:57;;;;;;;76.85;59.15;;;17.90;82.50;;;;;;4935512;28;89989;-75
2023/05/14 02:00:26;;;;;;;78.18;59.10;;;17.90;82.50;;;;;;4938348;28;90150;-73
2023/05/14 02:02:52;;;;;;;77.53;59.30;;;17.90;82.50;;;;;;4952454;28;91754;-73
2023/05/14 02:05:18;;;;;;;78.78;59.40;;;17.90;82.10;;;;;;4936743;28;89616;-75
2023/05/14 02:07:44;;;;;;;77.68;58.97;;;17.90;82.20;;;;;;4929901;28;89896;-74
2023/05/14 02:10:10;;;;;;;79.35;59.70;;;17.80;82.20;;;;;;4932474;28;91015;-74
2023/05/14 02:12:36;;;;;;;78.57;59.47;;;17.90;82.10;;;;;;4933377;28;90561;-74
2023/05/14 02:15:05;;;;;;;75.75;58.47;;;17.90;82.20;;;;;;4934158;28;90044;-73
2023/05/14 02:17:30;;;;;;;77.10;59.08;;;17.90;82.50;;;;;;4937772;28;91325;-71
2023/05/14 02:19:56;;;;;;;75.53;58.70;;;17.80;82.40;;;;;;4930098;28;90716;-73
2023/05/14 02:22:21;;;;;;;77.80;59.40;;;17.90;82.60;;;;;;4938143;28;91521;-73
2023/05/14 02:24:48;;;;;;;78.90;59.88;;;17.90;82.60;;;;;;4932691;28;90467;-72
2023/05/14 02:27:14;;;;;;;80.55;59.05;;;17.90;82.30;;;;;;4939222;28;90157;-74
2023/05/14 02:29:39;;;;;;;78.43;59.20;;;17.80;82.50;;;;;;4954269;28;89847;-74
2023/05/14 02:32:05;;;;;;;77.32;59.33;;;17.90;82.50;;;;;;4933448;28;91410;-73
2023/05/14 02:34:33;;;;;;;79.30;60.22;;;17.80;82.70;;;;;;4935357;28;90921;-75
2023/05/14 02:36:58;;;;;;;77.82;59.90;;;17.80;82.30;;;;;;4932649;28;96640;-75
2023/05/14 02:39:24;;;;;;;75.95;59.35;;;17.80;82.20;;;;;;4926020;28;90128;-73
2023/05/14 02:41:50;;;;;;;75.95;59.33;;;17.80;82.20;;;;;;4934149;28;91365;-74
2023/05/14 02:44:15;;;;;;;80.45;59.78;;;17.80;82.50;;;;;;4943218;28;94977;-74
2023/05/14 02:46:42;;;;;;;76.28;59.22;;;17.80;82.60;;;;;;4927953;28;94810;-76
2023/05/14 02:49:08;;;;;;;76.20;58.67;;;17.80;82.70;;;;;;4926818;28;90185;-75
2023/05/14 02:51:33;;;;;;;77.93;59.38;;;17.80;82.70;;;;;;4932592;28;90985;-71
2023/05/14 02:53:59;;;;;;;78.22;59.35;;;17.80;82.40;;;;;;4932062;28;89793;-74
2023/05/14 02:56:25;;;;;;;77.22;58.72;;;17.80;82.50;;;;;;4933003;28;90592;-73
2023/05/14 02:58:51;;;;;;;78.70;59.42;;;17.80;82.50;;;;;;4929631;28;90429;-73
2023/05/14 03:01:17;;;;;;;78.22;59.45;;;17.80;82.40;;;;;;4937643;28;92096;-75
2023/05/14 03:03:43;;;;;;;76.80;58.45;;;17.80;82.50;;;;;;4935459;28;91367;-74
2023/05/14 03:06:08;;;;;;;75.88;58.95;;;17.80;82.70;;;;;;4938266;28;90317;-72
2023/05/14 03:08:34;;;;;;;78.47;59.70;;;17.80;82.50;;;;;;4947461;28;89878;-73
2023/05/14 03:11:00;;;;;;;76.28;58.33;;;17.70;82.10;;;;;;4930533;28;90396;-73
2023/05/14 03:13:25;;;;;;;77.80;59.42;;;17.80;82.50;;;;;;4932813;28;90782;-73
2023/05/14 03:15:53;;;;;;;77.53;59.42;;;17.70;82.10;;;;;;4918109;28;91063;-73
2023/05/14 03:18:19;;;;;;;76.75;58.90;;;17.70;82.60;;;;;;4933020;28;89130;-73
2023/05/14 03:20:45;;;;;;;77.47;59.83;;;17.70;82.20;;;;;;4926305;28;90185;-73
2023/05/14 03:23:11;;;;;;;79.40;60.15;;;17.70;82.30;;;;;;4924233;28;90099;-74
2023/05/14 03:25:36;;;;;;;80.30;59.53;;;17.70;82.30;;;;;;4936222;28;93402;-74
2023/05/14 03:28:02;;;;;;;78.97;59.88;;;17.70;82.40;;;;;;4928888;28;91097;-71
2023/05/14 03:30:28;;;;;;;77.95;59.47;;;17.70;82.20;;;;;;4936511;28;95276;-74
2023/05/14 03:32:54;;;;;;;78.45;59.50;;;17.70;82.20;;;;;;4936095;28;91572;-75
2023/05/14 03:35:20;;;;;;;74.28;58.58;;;17.70;82.50;;;;;;4933772;28;92318;-74
2023/05/14 03:37:45;;;;;;;78.35;59.55;;;17.70;82.40;;;;;;4935927;28;90231;-73
2023/05/14 03:40:11;;;;;;;77.13;59.80;;;17.70;82.20;;;;;;4934071;28;91380;-74
2023/05/14 03:42:37;;;;;;;77.45;59.25;;;17.70;82.50;;;;;;4939644;28;89147;-75
2023/05/14 03:45:03;;;;;;;75.68;59.15;;;17.70;82.50;;;;;;4939881;28;90693;-71
2023/05/14 03:47:28;;;;;;;77.18;59.80;;;17.70;82.40;;;;;;4939676;28;90158;-73
2023/05/14 03:49:55;;;;;;;78.90;59.35;;;17.70;82.20;;;;;;4937553;28;92870;-70
2023/05/14 03:52:21;;;;;;;77.55;58.45;;;17.70;82.70;;;;;;4942104;28;90625;-74
2023/05/14 03:54:46;;;;;;;75.38;58.63;;;17.60;82.40;;;;;;4941334;28;89893;-74
2023/05/14 03:57:12;;;;;;;78.57;59.85;;;17.60;82.40;;;;;;4930022;28;91307;-72
2023/05/14 03:59:37;;;;;;;77.82;60.05;;;17.60;81.90;;;;;;4940937;28;89617;-74
2023/05/14 04:02:03;;;;;;;76.45;58.63;;;17.60;82.30;;;;;;4942161;28;89561;-73
2023/05/14 04:04:29;;;;;;;76.22;58.65;;;17.60;82.30;;;;;;4936862;28;90500;-75
2023/05/14 04:06:55;;;;;;;77.70;59.05;;;17.60;82.40;;;;;;4934689;28;89717;-73
2023/05/14 04:09:20;;;;;;;78.05;59.08;;;17.60;82.30;;;;;;4936909;28;89781;-74
2023/05/14 04:11:46;;;;;;;75.28;59.83;;;17.60;82.20;;;;;;4938453;28;89602;-74
2023/05/14 04:14:11;;;;;;;79.18;60.03;;;17.60;82.30;;;;;;4933083;28;97241;-72
2023/05/14 04:16:37;;;;;;;77.68;60.30;;;17.60;82.10;;;;;;4930671;28;96054;-75
2023/05/14 04:19:06;;;;;;;75.65;58.83;;;17.60;82.10;;;;;;4934777;28;90616;-73
2023/05/14 04:21:31;;;;;;;76.53;59.47;;;17.60;82.30;;;;;;4942266;28;89984;-74
2023/05/14 04:23:57;;;;;;;78.82;59.63;;;17.60;82.20;;;;;;4919166;28;95416;-74
2023/05/14 04:26:23;;;;;;;78.20;59.80;;;17.60;82.50;;;;;;4924226;28;90934;-72
2023/05/14 04:28:48;;;;;;;77.35;60.00;;;17.60;82.30;;;;;;4920722;28;94265;-72
2023/05/14 04:31:14;;;;;;;75.20;58.92;;;17.60;82.30;;;;;;4932351;28;89176;-71
2023/05/14 04:33:40;;;;;;;77.22;59.72;;;17.60;82.30;;;;;;4922866;28;90201;-76
2023/05/14 04:36:07;;;;;;;78.85;59.80;;;17.60;82.10;;;;;;4921309;28;90117;-74
2023/05/14 04:38:33;;;;;;;76.30;59.50;;;17.60;82.30;;;;;;4935574;28;93344;-74
2023/05/14 04:40:59;;;;;;;76.60;59.70;;;17.60;82.30;;;;;;4934741;28;89917;-73
2023/05/14 04:43:24;;;;;;;79.30;59.58;;;17.60;82.40;;;;;;4920973;28;90642;-72
2023/05/14 04:45:51;;;;;;;76.93;59.88;;;17.60;82.10;;;;;;4925536;28;91978;-73
2023/05/14 04:48:17;;;;;;;79.20;60.30;;;17.60;82.10;;;;;;4929487;28;91972;-74
2023/05/14 04:50:43;;;;;;;76.32;59.08;;;17.50;81.90;;;;;;4921663;28;89972;-71
2023/05/14 04:53:09;;;;;;;78.25;60.17;;;17.60;82.30;;;;;;4923792;28;90834;-73
2023/05/14 04:55:35;;;;;;;78.25;60.08;;;17.50;81.80;;;;;;4921634;28;89940;-76
2023/05/14 04:58:01;;;;;;;77.32;59.88;;;17.50;82.10;;;;;;4938985;28;91531;-72
2023/05/14 05:00:27;;;;;;;79.55;60.67;;;17.50;81.90;;;;;;4939471;28;90207;-73
2023/05/14 05:02:53;;;;;;;77.20;59.20;;;17.50;81.70;;;;;;4921988;28;92358;-75
2023/05/14 05:05:18;;;;;;;75.93;58.95;;;17.50;82.30;;;;;;4924638;28;95158;-73
2023/05/14 05:07:44;;;;;;;78.60;59.90;;;17.50;82.40;;;;;;4921736;28;89686;-73
2023/05/14 05:10:10;;;;;;;78.18;60.47;;;17.50;82.30;;;;;;4950267;28;90086;-75
2023/05/14 05:12:36;;;;;;;78.35;60.13;;;17.50;81.80;;;;;;4931314;28;90746;-75
2023/05/14 05:15:01;;;;;;;78.00;60.10;;;17.50;81.90;;;;;;4923147;28;91401;-72
2023/05/14 05:17:28;;;;;;;80.93;60.50;;;17.50;81.70;;;;;;4940408;28;89709;-73
2023/05/14 05:19:54;;;;;;;78.55;59.53;;;17.50;81.80;;;;;;4937899;28;89046;-73
2023/05/14 05:22:19;;;;;;;77.25;59.72;;;17.50;82.30;;;;;;4937624;28;90401;-71
2023/05/14 05:24:45;;;;;;;77.88;59.72;;;17.50;82.00;;;;;;4938185;28;89829;-74
2023/05/14 05:27:11;;;;;;;80.47;60.65;;;17.50;81.90;;;;;;4936368;28;92676;-74
2023/05/14 05:29:36;;;;;;;76.85;59.17;;;17.40;81.80;;;;;;4936038;28;90595;-71
2023/05/14 05:32:02;;;;;;;79.53;60.22;;;17.50;82.10;;;;;;4936971;28;91263;-74
2023/05/14 05:34:28;;;;;;;79.15;59.75;;;17.50;82.00;;;;;;4940993;28;92651;-71
2023/05/14 05:36:54;;;;;;;77.63;59.28;;;17.40;81.80;;;;;;4951109;28;90218;-72
2023/05/14 05:39:19;;;;;;;80.78;60.03;;;17.50;82.10;;;;;;4942412;28;90255;-71
2023/05/14 05:41:45;;;;;;;77.22;58.85;;;17.40;81.90;;;;;;4935669;28;92009;-74
2023/05/14 05:44:11;;;;;;;79.63;59.80;;;17.50;82.20;;;;;;4940092;28;92127;-74
2023/05/14 05:46:36;;;;;;;76.97;59.47;;;17.40;81.70;;;;;;4933005;28;90127;-74
2023/05/14 05:49:02;;;;;;;76.57;59.65;;;17.40;81.50;;;;;;4939855;28;90062;-73
2023/05/14 05:51:28;;;;;;;78.57;59.50;;;17.40;81.60;;;;;;4933294;28;90968;-74
2023/05/14 05:53:53;;;;;;;77.47;60.38;;;17.40;81.60;;;;;;4938631;28;91731;-74
2023/05/14 05:56:20;;;;;;;78.60;59.75;;;17.40;81.50;;;;;;4938325;28;90000;-72
2023/05/14 05:58:45;;;;;;;77.40;58.95;;;17.40;81.60;;;;;;4933183;28;89694;-74
2023/05/14 06:01:11;;;;;;;76.60;59.60;;;17.40;82.50;;;;;;4938739;28;89558;-75
2023/05/14 06:03:36;;;;;;;78.90;59.72;;;17.40;81.60;;;;;;4939795;28;90287;-74
2023/05/14 06:06:02;;;;;;;77.32;59.20;;;17.40;81.80;;;;;;4935119;28;89559;-73
2023/05/14 06:08:27;;;;;;;76.90;59.40;;;17.40;81.80;;;;;;4938972;28;89952;-72
2023/05/14 06:10:53;;;;;;;77.65;59.15;;;17.40;81.80;;;;;;4937151;28;90959;-75
2023/05/14 06:13:19;;;;;;;77.43;58.95;;;17.40;81.80;;;;;;4939325;28;89688;-74
2023/05/14 06:15:44;;;;;;;75.20;58.83;;;17.40;81.50;;;;;;4930037;28;91104;-73
2023/05/14 06:18:10;;;;;;;76.85;59.58;;;17.40;81.50;;;;;;4931708;28;89607;-75
2023/05/14 06:20:36;;;;;;;78.68;60.00;;;17.40;81.20;;;;;;4932708;28;89987;-71
2023/05/14 06:23:01;;;;;;;80.97;60.85;;;17.40;81.20;;;;;;4932823;28;89768;-74
2023/05/14 06:25:27;;;;;;;77.07;59.70;;;17.40;80.80;;;;;;4937777;28;90257;-72
2023/05/14 06:27:52;;;;;;;79.15;59.30;;;17.40;81.20;;;;;;4937755;28;91135;-74
2023/05/14 06:30:18;;;;;;;78.13;59.80;;;17.40;81.70;;;;;;4936387;28;90120;-73
2023/05/14 06:32:44;;;;;;;77.35;60.00;;;17.40;81.50;;;;;;4938113;28;89440;-75
2023/05/14 06:35:09;;;;;;;76.10;58.88;;;17.30;81.20;;;;;;4939297;28;89792;-74
2023/05/14 06:37:35;;;;;;;75.85;58.83;;;17.40;81.40;;;;;;4937791;28;89435;-74
2023/05/14 06:40:02;;;;;;;75.68;58.72;;;17.40;81.40;;;;;;4933963;28;92469;-72
2023/05/14 06:42:28;;;;;;;75.45;59.08;;;17.30;81.10;;;;;;4938255;28;91294;-74
2023/05/14 06:44:53;;;;;;;78.95;60.00;;;17.40;81.20;;;;;;4940848;28;90052;-75
2023/05/14 06:47:19;;;;;;;75.47;59.03;;;17.30;81.10;;;;;;4937391;28;89864;-77
2023/05/14 06:49:45;;;;;;;75.47;58.70;;;17.30;81.20;;;;;;4935192;28;90978;-74
2023/05/14 06:52:11;;;;;;;75.03;58.17;;;17.40;81.40;;;;;;4936797;28;90216;-77
2023/05/14 06:54:36;;;;;;;76.75;59.58;;;17.40;81.30;;;;;;4936200;28;89926;-75
2023/05/14 06:57:02;;;;;;;76.75;58.35;;;17.40;80.80;;;;;;4938383;28;89264;-79
2023/05/14 06:59:28;;;;;;;79.20;59.17;;;17.40;80.90;;;;;;4943527;28;89745;-74
2023/05/14 07:01:54;;;;;;;78.68;58.80;;;17.40;81.30;;;;;;4939890;28;90571;-73
2023/05/14 07:04:19;;;;;;;81.75;59.33;;;17.40;81.60;;;;;;4943224;28;90988;-73
2023/05/14 07:06:45;;;;;;;76.55;58.72;;;17.40;81.50;;;;;;4937124;28;89436;-73
2023/05/14 07:09:12;;;;;;;77.30;59.25;;;17.40;81.20;;;;;;4937944;28;89190;-72
2023/05/14 07:11:37;;;;;;;78.80;59.15;;;17.40;81.30;;;;;;4924482;28;89120;-71
2023/05/14 07:14:03;;;;;;;76.13;58.00;;;17.40;81.00;;;;;;4926844;28;90223;-71
2023/05/14 07:16:29;;;;;;;77.07;59.47;;;17.40;81.80;;;;;;4912931;28;90781;-72
2023/05/14 07:18:54;;;;;;;83.10;59.13;;;17.40;81.90;;;;;;4908567;28;95892;-71
2023/05/14 07:21:20;;;;;;;79.10;59.08;;;17.40;81.90;;;;;;4921377;28;94297;-72
2023/05/14 07:23:46;;;;;;;78.75;59.38;;;17.40;82.10;;;;;;4916120;28;90264;-70
2023/05/14 07:26:11;;;;;;;77.00;59.90;;;17.50;82.50;;;;;;4911189;28;91305;-71
2023/05/14 07:28:37;;;;;;;79.88;59.17;;;17.50;82.20;;;;;;4924820;28;91268;-71
2023/05/14 07:31:07;;;;;;;82.32;61.47;;;17.50;82.50;;;;;;4928173;28;91854;-70
2023/05/14 07:33:37;;;;;;;79.05;60.60;;;17.50;82.60;;;;;;4931378;28;89337;-70
2023/05/14 07:36:02;;;;;;;77.80;60.35;;;17.50;82.40;;;;;;4922533;28;90417;-72
2023/05/14 07:38:28;;;;;;;82.38;60.05;;;17.60;82.40;;;;;;4929813;28;89675;-70
2023/05/14 07:40:54;;;;;;;78.55;59.35;;;17.60;82.30;;;;;;4928437;28;90785;-73
2023/05/14 07:43:19;;;;;;;82.00;61.97;;;17.60;82.30;;;;;;4924098;28;89573;-72
2023/05/14 07:45:45;;;;;;;79.85;59.78;;;17.50;82.10;;;;;;4923237;28;90267;-72
2023/05/14 07:48:11;;;;;;;83.32;60.50;;;17.60;81.60;;;;;;4917023;28;91654;-73
2023/05/14 07:50:37;;;;;;;80.97;60.17;;;17.60;82.10;;;;;;4927134;28;89899;-71
2023/05/14 07:53:02;;;;;;;82.38;59.47;;;17.60;82.00;;;;;;4918372;28;92409;-71
2023/05/14 07:55:28;;;;;;;81.32;60.10;;;17.60;81.70;;;;;;4928742;28;89471;-69
2023/05/14 07:57:53;;;;;;;81.45;59.92;;;17.60;82.00;;;;;;4926432;28;90520;-72
2023/05/14 08:00:19;;;;;;;80.18;59.75;;;17.60;82.10;;;;;;4931754;28;89645;-75
2023/05/14 08:02:45;;;;;;;83.70;59.85;;;17.60;82.30;;;;;;4916768;28;96872;-80
2023/05/14 08:05:10;;;;;;;78.53;59.30;;;17.60;82.10;;;;;;4940031;28;89376;-73
2023/05/14 08:07:36;;;;;;;82.50;60.50;;;17.60;82.00;;;;;;4920169;28;90839;-73
2023/05/14 08:10:02;;;;;;;79.55;60.58;;;17.60;81.50;;;;;;4921828;28;88668;-71
2023/05/14 08:12:28;;;;;;;81.38;62.03;;;17.60;82.00;;;;;;4928366;28;90624;-72
2023/05/14 08:14:55;;;;;;;84.95;60.58;;;17.60;81.70;;;;;;4929084;28;91802;-76
2023/05/14 08:17:20;;;;;;;78.97;59.45;;;17.60;81.80;;;;;;4929558;28;93666;-75
2023/05/14 08:19:46;;;;;;;78.97;60.10;;;17.60;81.70;;;;;;4929509;28;91396;-70
2023/05/14 08:22:12;;;;;;;81.38;60.55;;;17.60;81.10;;;;;;4906504;28;90619;-70
2023/05/14 08:24:38;;;;;;;79.00;60.85;;;17.60;81.00;;;;;;4927272;28;91234;-71
2023/05/14 08:27:04;;;;;;;78.90;59.53;;;17.60;80.90;;;;;;4923093;28;90148;-69
2023/05/14 08:29:29;;;;;;;77.25;59.47;;;17.60;81.40;;;;;;4927002;28;90201;-72
2023/05/14 08:31:56;;;;;;;82.20;60.03;;;17.60;81.70;;;;;;4921676;28;90231;-72
2023/05/14 08:34:21;;;;;;;82.35;59.80;;;17.60;82.20;;;;;;4929453;28;89415;-71
2023/05/14 08:36:47;;;;;;;78.00;59.15;;;17.60;82.50;;;;;;4935776;28;96326;-71
2023/05/14 08:39:12;;;;;;;83.45;61.60;;;17.70;82.80;;;;;;4929056;28;90716;-74
2023/05/14 08:41:39;;;;;;;104.95;66.63;;;17.70;83.60;;;;;;4932266;28;90531;-74
2023/05/14 08:44:17;;;;;;;91.20;62.70;;;17.70;84.30;;;;;;4926754;28;89883;-73
2023/05/14 08:46:43;;;;;;;86.63;61.95;;;17.70;84.10;;;;;;4930791;28;91724;-74
2023/05/14 08:49:21;;;;;;;86.82;61.45;;;17.70;84.00;;;;;;4930072;28;91061;-72
2023/05/14 08:51:47;;;;;;;85.63;62.67;;;17.70;84.80;;;;;;4947195;28;89995;-74
2023/05/14 08:54:16;;;;;;;89.70;62.58;;;17.70;85.00;;;;;;4927960;28;90030;-75
2023/05/14 08:56:44;;;;;;;86.03;61.67;;;17.70;87.20;;;;;;4929124;28;92350;-72
2023/05/14 08:59:10;;;;;;;90.22;64.70;;;17.70;88.30;;;;;;4929027;28;94599;-78
2023/05/14 09:01:38;;;;;;;90.65;65.72;;;17.80;89.50;;;;;;4930014;28;91340;-71
2023/05/14 09:04:07;;;;;;;84.28;63.05;;;17.80;90.60;;;;;;4930658;28;98794;-73
2023/05/14 09:06:36;;;;;;;89.95;64.35;;;17.80;90.20;;;;;;4932346;28;91599;-72
2023/05/14 09:09:03;;;;;;;88.63;64.90;;;17.80;90.10;;;;;;4931494;28;92025;-72
2023/05/14 09:11:29;;;;;;;87.38;65.18;;;17.80;90.50;;;;;;4935903;28;90855;-76
2023/05/14 09:13:54;;;;;;;90.63;66.63;;;17.80;90.60;;;;;;4934959;28;91607;-74
2023/05/14 09:16:20;;;;;;;97.57;66.55;;;17.80;91.00;;;;;;4926726;28;90257;-73
2023/05/14 09:18:46;;;;;;;85.82;63.15;;;17.80;91.50;;;;;;4946661;28;92257;-73
2023/05/14 09:21:14;;;;;;;127.32;70.95;;;17.80;91.70;;;;;;4923267;28;91680;-73
2023/05/14 09:23:43;;;;;;;106.88;69.03;;;17.80;91.70;;;;;;4933564;28;89271;-71
2023/05/14 09:26:09;;;;;;;108.22;66.88;;;17.80;92.10;;;;;;4938113;28;90071;-70
2023/05/14 09:28:34;;;;;;;108.03;68.28;;;17.90;92.20;;;;;;4931860;28;89950;-71
2023/05/14 09:31:01;;;;;;;101.38;66.68;;;17.90;92.80;;;;;;4926951;28;90519;-73
2023/05/14 09:33:28;;;;;;;101.43;65.55;;;17.90;92.60;;;;;;4929081;28;94681;-72
2023/05/14 09:35:59;;;;;;;92.45;65.25;;;17.90;92.50;;;;;;4932356;28;91533;-75
2023/05/14 09:38:32;;;;;;;94.18;64.93;;;17.90;92.50;;;;;;4930973;28;89517;-74
2023/05/14 09:40:59;;;;;;;117.18;79.70;;;17.90;92.40;;;;;;4931896;28;89951;-75
2023/05/14 09:43:25;;;;;;;167.15;105.88;;;17.90;92.00;;;;;;4942169;28;91941;-75
2023/05/14 09:45:51;;;;;;;248.50;139.18;;;17.90;91.50;;;;;;4939920;28;89530;-76
2023/05/14 09:48:17;;;;;;;229.32;132.23;;;17.90;90.90;;;;;;4935043;28;90250;-74
2023/05/14 09:50:44;;;;;;;218.10;131.30;;;17.90;90.50;;;;;;4950068;28;95056;-73
2023/05/14 09:53:10;;;;;;;213.13;127.03;;;17.90;90.10;;;;;;4949489;28;89191;-75
2023/05/14 09:55:37;;;;;;;201.05;118.15;;;17.90;89.60;;;;;;4949108;28;90486;-73
2023/05/14 09:58:03;;;;;;;195.45;116.30;;;17.90;88.70;;;;;;4938250;28;90348;-72
2023/05/14 10:00:32;;;;;;;197.23;118.20;;;17.90;88.60;;;;;;4945339;28;89831;-79
2023/05/14 10:03:02;;;;;;;182.20;112.78;;;17.90;88.60;;;;;;4932637;28;89250;-80
2023/05/14 10:05:28;;;;;;;290.15;142.98;;;17.90;88.20;;;;;;4930051;28;91650;-75
2023/05/14 10:07:58;;;;;;;297.38;143.93;;;17.90;88.30;;;;;;4928419;28;92649;-82
2023/05/14 10:10:27;;;;;;;304.95;143.57;;;17.90;87.90;;;;;;4919374;28;89479;-74
2023/05/14 10:13:03;;;;;;;282.88;138.90;;;17.90;88.40;;;;;;4929353;28;89066;-77
2023/05/14 10:15:35;;;;;;;254.35;127.35;;;17.90;88.20;;;;;;4927468;28;89481;-72
2023/05/14 10:18:06;;;;;;;220.00;116.05;;;18.00;87.80;;;;;;4934273;28;90456;-77
2023/05/14 10:20:33;;;;;;;218.65;115.30;;;18.00;87.10;;;;;;4932626;28;90464;-73
2023/05/14 10:22:59;;;;;;;207.98;108.80;;;18.00;86.70;;;;;;4941275;28;89769;-74
2023/05/14 10:25:25;;;;;;;185.93;104.03;;;18.00;86.90;;;;;;4937970;28;92496;-78
2023/05/14 10:27:52;;;;;;;185.45;102.45;;;18.00;86.90;;;;;;4938545;28;89944;-75
2023/05/14 10:30:21;;;;;;;181.15;100.13;;;18.00;86.50;;;;;;4928027;28;90297;-75
2023/05/14 10:32:47;;;;;;;183.70;96.93;;;18.00;86.80;;;;;;4926585;28;90092;-72
2023/05/14 10:35:19;;;;;;;165.48;96.40;;;18.00;86.70;;;;;;4917780;28;96100;-73
2023/05/14 10:37:45;;;;;;;163.30;95.40;;;18.00;86.70;;;;;;4941268;28;90846;-75
2023/05/14 10:40:12;;;;;;;163.38;94.10;;;18.00;86.70;;;;;;4915713;28;90824;-75
2023/05/14 10:42:39;;;;;;;163.60;94.28;;;18.00;86.50;;;;;;4919756;28;89758;-78
2023/05/14 10:45:12;;;;;;;143.65;88.28;;;18.00;86.60;;;;;;4928886;28;92094;-73
2023/05/14 10:47:41;;;;;;;152.98;89.35;;;18.00;86.10;;;;;;4923379;28;90947;-73
2023/05/14 10:50:09;;;;;;;145.55;88.22;;;18.00;86.30;;;;;;4922940;28;91861;-75
2023/05/14 10:52:35;;;;;;;142.40;86.38;;;18.00;86.10;;;;;;4937058;28;89586;-76
2023/05/14 10:55:06;;;;;;;145.30;85.15;;;18.00;86.00;;;;;;4935029;28;89768;-74
2023/05/14 10:57:33;;;;;;;134.80;84.13;;;18.00;85.80;;;;;;4928231;28;89772;-77
2023/05/14 11:00:00;;;;;;;145.43;84.43;;;18.00;85.80;;;;;;4923112;28;90624;-80
2023/05/14 11:02:33;;;;;;;144.05;82.82;;;18.00;85.80;;;;;;4929549;28;89218;-72
2023/05/14 11:05:03;;;;;;;133.32;81.65;;;18.00;85.80;;;;;;4923474;28;90473;-76
2023/05/14 11:07:40;;;;;;;132.68;82.28;;;18.10;86.00;;;;;;4921250;28;93142;-76
2023/05/14 11:10:24;;;;;;;124.28;80.85;;;18.10;86.00;;;;;;4930612;28;90970;-79
2023/05/14 11:12:51;;;;;;;129.93;80.05;;;18.00;85.90;;;;;;4923625;28;93226;-76
2023/05/14 11:15:19;;;;;;;125.28;78.50;;;18.00;85.80;;;;;;4918012;28;90797;-73
2023/05/14 11:17:47;;;;;;;132.32;78.05;;;18.10;85.80;;;;;;4924204;28;90815;-73
2023/05/14 11:20:13;;;;;;;127.47;78.80;;;18.10;85.80;;;;;;4938953;28;90563;-75
2023/05/14 11:22:41;;;;;;;125.38;78.85;;;18.10;85.80;;;;;;4935607;28;91266;-77
2023/05/14 11:25:07;;;;;;;121.85;77.20;;;18.10;85.80;;;;;;4938121;28;90758;-75
2023/05/14 11:27:34;;;;;;;120.25;77.78;;;18.10;85.80;;;;;;4933785;28;89134;-75
2023/05/14 11:30:00;;;;;;;120.13;76.65;;;18.10;85.70;;;;;;4935441;28;90928;-73
2023/05/14 11:32:26;;;;;;;127.30;76.43;;;18.10;85.70;;;;;;4934821;28;91212;-72
2023/05/14 11:34:52;;;;;;;118.35;75.90;;;18.10;85.70;;;;;;4937449;28;99013;-76
2023/05/14 11:37:19;;;;;;;124.60;77.38;;;18.10;85.50;;;;;;4937360;28;91117;-74
2023/05/14 11:39:52;;;;;;;117.10;75.28;;;18.10;85.40;;;;;;4936323;28;90904;-70
2023/05/14 11:42:18;;;;;;;111.13;74.07;;;18.10;85.30;;;;;;4932828;28;91140;-77
2023/05/14 11:44:52;;;;;;;115.80;74.35;;;18.10;85.20;;;;;;4931594;28;91179;-74
2023/05/14 11:47:20;;;;;;;113.13;75.10;;;18.10;85.10;;;;;;4942615;28;90561;-77
2023/05/14 11:49:46;;;;;;;114.90;74.80;;;18.10;85.20;;;;;;4932602;28;90219;-76
2023/05/14 11:52:13;;;;;;;114.60;73.60;;;18.10;84.90;;;;;;4932857;28;89422;-74
2023/05/14 11:54:43;;;;;;;115.43;72.38;;;18.10;84.90;;;;;;4931047;28;89564;-77
2023/05/14 11:57:11;;;;;;;113.60;72.97;;;18.10;84.80;;;;;;4931079;28;90854;-76
2023/05/14 11:59:37;;;;;;;107.07;71.57;;;18.10;84.70;;;;;;4917068;28;94596;-77
2023/05/14 12:02:04;;;;;;;108.28;70.38;;;18.10;84.60;;;;;;4922163;28;90739;-72
2023/05/14 12:04:30;;;;;;;106.95;72.32;;;18.10;84.60;;;;;;4927957;28;90524;-73
2023/05/14 12:06:59;;;;;;;104.05;71.18;;;18.10;84.40;;;;;;4926369;28;90475;-72
2023/05/14 12:09:25;;;;;;;99.53;70.47;;;18.20;84.30;;;;;;4919631;28;89879;-79
2023/05/14 12:11:51;;;;;;;104.68;70.40;;;18.20;83.90;;;;;;4931300;28;89506;-73
2023/05/14 12:14:22;;;;;;;102.60;69.38;;;18.20;84.20;;;;;;4934461;28;90639;-77
2023/05/14 12:16:48;;;;;;;104.90;70.97;;;18.20;84.20;;;;;;4940110;28;93787;-77
2023/05/14 12:19:16;;;;;;;105.88;70.68;;;18.20;84.40;;;;;;4950377;28;89218;-78
2023/05/14 12:21:43;;;;;;;99.85;70.57;;;18.20;84.60;;;;;;4948931;28;89552;-79